sensor_id;sensor_type;location;lat;lon;timestamp;P1;durP1;ratioP1;P2;durP2;ratioP2
77016;SDS011;65949;53.132;17.930;2023-01-10T00:00:30;25.50;;;11.20;;
77016;SDS011;65949;53.132;17.930;2023-01-10T00:03:20;20.80;;;9.40;;
77016;SDS011;65949;53.132;17.930;2023-01-10T00:05:47;22.10;;;9.50;;
77016;SDS011;65949;53.132;17.930;2023-01-10T00:08:15;21.60;;;9.20;;
77016;SDS011;65949;53.132;17.930;2023-01-10T00:10:42;22.10;;;9.80;;
77016;SDS011;65949;53.132;17.930;2023-01-10T00:13:15;21.90;;;9.40;;
77016;SDS011;65949;53.132;17.930;2023-01-10T00:15:53;22.20;;;10.00;;
77016;SDS011;65949;53.132;17.930;2023-01-10T00:18:21;29.40;;;12.00;;
77016;SDS011;65949;53.132;17.930;2023-01-10T00:20:48;27.10;;;12.00;;
77016;SDS011;65949;53.132;17.930;2023-01-10T00:23:15;25.30;;;11.20;;
77016;SDS011;65949;53.132;17.930;2023-01-10T00:25:45;25.70;;;11.40;;
77016;SDS011;65949;53.132;17.930;2023-01-10T00:28:12;23.10;;;10.80;;
77016;SDS011;65949;53.132;17.930;2023-01-10T00:30:48;23.70;;;9.90;;
77016;SDS011;65949;53.132;17.930;2023-01-10T00:33:20;20.50;;;9.10;;
77016;SDS011;65949;53.132;17.930;2023-01-10T00:35:47;20.20;;;9.00;;
77016;SDS011;65949;53.132;17.930;2023-01-10T00:38:14;18.90;;;8.60;;
77016;SDS011;65949;53.132;17.930;2023-01-10T00:40:42;20.40;;;9.00;;
77016;SDS011;65949;53.132;17.930;2023-01-10T00:43:09;20.30;;;9.90;;
77016;SDS011;65949;53.132;17.930;2023-01-10T00:45:55;22.60;;;10.20;;
77016;SDS011;65949;53.132;17.930;2023-01-10T00:48:23;22.10;;;9.40;;
77016;SDS011;65949;53.132;17.930;2023-01-10T00:50:50;22.90;;;10.40;;
77016;SDS011;65949;53.132;17.930;2023-01-10T00:53:17;21.30;;;9.60;;
77016;SDS011;65949;53.132;17.930;2023-01-10T00:55:44;23.60;;;9.40;;
77016;SDS011;65949;53.132;17.930;2023-01-10T00:58:12;19.80;;;9.40;;
77016;SDS011;65949;53.132;17.930;2023-01-10T01:00:40;20.40;;;8.90;;
77016;SDS011;65949;53.132;17.930;2023-01-10T01:03:07;16.70;;;8.10;;
77016;SDS011;65949;53.132;17.930;2023-01-10T01:05:41;21.30;;;9.20;;
77016;SDS011;65949;53.132;17.930;2023-01-10T01:08:09;20.60;;;9.50;;
77016;SDS011;65949;53.132;17.930;2023-01-10T01:10:37;18.70;;;7.70;;
77016;SDS011;65949;53.132;17.930;2023-01-10T01:13:05;21.00;;;9.40;;
77016;SDS011;65949;53.132;17.930;2023-01-10T01:15:34;24.90;;;10.00;;
77016;SDS011;65949;53.132;17.930;2023-01-10T01:18:02;21.10;;;10.20;;
77016;SDS011;65949;53.132;17.930;2023-01-10T01:20:29;20.00;;;9.20;;
77016;SDS011;65949;53.132;17.930;2023-01-10T01:22:57;19.00;;;7.60;;
77016;SDS011;65949;53.132;17.930;2023-01-10T01:25:24;16.90;;;8.30;;
77016;SDS011;65949;53.132;17.930;2023-01-10T01:27:50;17.40;;;7.60;;
77016;SDS011;65949;53.132;17.930;2023-01-10T01:30:17;16.40;;;7.20;;
77016;SDS011;65949;53.132;17.930;2023-01-10T01:32:44;21.80;;;9.50;;
77016;SDS011;65949;53.132;17.930;2023-01-10T01:35:11;20.40;;;8.90;;
77016;SDS011;65949;53.132;17.930;2023-01-10T01:37:40;23.80;;;10.10;;
77016;SDS011;65949;53.132;17.930;2023-01-10T01:40:14;20.00;;;8.30;;
77016;SDS011;65949;53.132;17.930;2023-01-10T01:42:46;20.10;;;8.70;;
77016;SDS011;65949;53.132;17.930;2023-01-10T01:50:47;16.00;;;7.80;;
77016;SDS011;65949;53.132;17.930;2023-01-10T01:53:38;15.80;;;7.10;;
77016;SDS011;65949;53.132;17.930;2023-01-10T01:56:11;15.50;;;6.60;;
77016;SDS011;65949;53.132;17.930;2023-01-10T01:58:52;12.80;;;5.50;;
77016;SDS011;65949;53.132;17.930;2023-01-10T02:01:24;14.10;;;5.60;;
77016;SDS011;65949;53.132;17.930;2023-01-10T02:03:54;17.80;;;7.10;;
77016;SDS011;65949;53.132;17.930;2023-01-10T02:06:28;17.70;;;7.40;;
77016;SDS011;65949;53.132;17.930;2023-01-10T02:08:58;18.80;;;8.30;;
77016;SDS011;65949;53.132;17.930;2023-01-10T02:11:41;18.20;;;8.10;;
77016;SDS011;65949;53.132;17.930;2023-01-10T02:14:08;17.10;;;6.90;;
77016;SDS011;65949;53.132;17.930;2023-01-10T02:16:37;19.30;;;7.90;;
77016;SDS011;65949;53.132;17.930;2023-01-10T02:19:04;15.70;;;6.50;;
77016;SDS011;65949;53.132;17.930;2023-01-10T02:21:50;14.60;;;6.20;;
77016;SDS011;65949;53.132;17.930;2023-01-10T02:24:49;15.10;;;7.00;;
77016;SDS011;65949;53.132;17.930;2023-01-10T02:35:36;22.10;;;7.80;;
77016;SDS011;65949;53.132;17.930;2023-01-10T02:41:28;19.70;;;7.80;;
77016;SDS011;65949;53.132;17.930;2023-01-10T02:44:04;15.10;;;5.80;;
77016;SDS011;65949;53.132;17.930;2023-01-10T02:46:37;14.80;;;5.50;;
77016;SDS011;65949;53.132;17.930;2023-01-10T02:49:05;15.00;;;6.20;;
77016;SDS011;65949;53.132;17.930;2023-01-10T02:51:32;16.40;;;7.00;;
77016;SDS011;65949;53.132;17.930;2023-01-10T02:59:08;22.60;;;8.40;;
77016;SDS011;65949;53.132;17.930;2023-01-10T03:07:38;22.20;;;7.50;;
77016;SDS011;65949;53.132;17.930;2023-01-10T03:13:04;19.60;;;6.90;;
77016;SDS011;65949;53.132;17.930;2023-01-10T03:15:39;22.30;;;7.10;;
77016;SDS011;65949;53.132;17.930;2023-01-10T03:18:09;19.20;;;7.70;;
77016;SDS011;65949;53.132;17.930;2023-01-10T03:20:41;16.40;;;7.00;;
77016;SDS011;65949;53.132;17.930;2023-01-10T03:23:12;16.40;;;7.00;;
77016;SDS011;65949;53.132;17.930;2023-01-10T03:25:42;24.10;;;7.80;;
77016;SDS011;65949;53.132;17.930;2023-01-10T03:31:01;17.50;;;7.10;;
77016;SDS011;65949;53.132;17.930;2023-01-10T03:33:35;16.30;;;6.70;;
77016;SDS011;65949;53.132;17.930;2023-01-10T03:41:55;15.40;;;6.80;;
77016;SDS011;65949;53.132;17.930;2023-01-10T03:47:41;14.40;;;5.80;;
77016;SDS011;65949;53.132;17.930;2023-01-10T03:50:12;36.70;;;17.40;;
77016;SDS011;65949;53.132;17.930;2023-01-10T03:52:44;26.70;;;11.30;;
77016;SDS011;65949;53.132;17.930;2023-01-10T03:55:13;24.10;;;10.30;;
77016;SDS011;65949;53.132;17.930;2023-01-10T03:57:44;19.50;;;8.50;;
77016;SDS011;65949;53.132;17.930;2023-01-10T04:00:12;21.60;;;9.10;;
77016;SDS011;65949;53.132;17.930;2023-01-10T04:02:39;19.10;;;8.00;;
77016;SDS011;65949;53.132;17.930;2023-01-10T04:05:06;17.20;;;7.50;;
77016;SDS011;65949;53.132;17.930;2023-01-10T04:07:33;16.20;;;7.20;;
77016;SDS011;65949;53.132;17.930;2023-01-10T04:10:00;16.90;;;7.20;;
77016;SDS011;65949;53.132;17.930;2023-01-10T04:12:27;13.90;;;5.50;;
77016;SDS011;65949;53.132;17.930;2023-01-10T04:14:53;12.00;;;5.40;;
77016;SDS011;65949;53.132;17.930;2023-01-10T04:17:20;12.20;;;5.10;;
77016;SDS011;65949;53.132;17.930;2023-01-10T04:19:47;11.70;;;5.10;;
77016;SDS011;65949;53.132;17.930;2023-01-10T04:22:14;15.90;;;5.80;;
77016;SDS011;65949;53.132;17.930;2023-01-10T04:24:40;17.20;;;6.60;;
77016;SDS011;65949;53.132;17.930;2023-01-10T04:27:09;14.00;;;5.20;;
77016;SDS011;65949;53.132;17.930;2023-01-10T04:29:36;12.50;;;5.50;;
77016;SDS011;65949;53.132;17.930;2023-01-10T04:32:02;10.80;;;4.60;;
77016;SDS011;65949;53.132;17.930;2023-01-10T04:34:29;12.20;;;5.30;;
77016;SDS011;65949;53.132;17.930;2023-01-10T04:36:56;12.60;;;4.90;;
77016;SDS011;65949;53.132;17.930;2023-01-10T04:39:22;13.00;;;4.90;;
77016;SDS011;65949;53.132;17.930;2023-01-10T04:41:49;12.80;;;5.10;;
77016;SDS011;65949;53.132;17.930;2023-01-10T04:44:16;14.20;;;5.10;;
77016;SDS011;65949;53.132;17.930;2023-01-10T04:46:42;14.10;;;5.30;;
77016;SDS011;65949;53.132;17.930;2023-01-10T04:49:09;17.90;;;5.20;;
77016;SDS011;65949;53.132;17.930;2023-01-10T04:51:36;13.80;;;5.50;;
77016;SDS011;65949;53.132;17.930;2023-01-10T04:54:03;18.50;;;6.20;;
77016;SDS011;65949;53.132;17.930;2023-01-10T04:56:30;12.70;;;5.00;;
77016;SDS011;65949;53.132;17.930;2023-01-10T04:58:57;12.60;;;4.90;;
77016;SDS011;65949;53.132;17.930;2023-01-10T05:01:23;11.60;;;4.60;;
77016;SDS011;65949;53.132;17.930;2023-01-10T05:03:52;15.20;;;5.70;;
77016;SDS011;65949;53.132;17.930;2023-01-10T05:06:21;16.80;;;6.00;;
77016;SDS011;65949;53.132;17.930;2023-01-10T05:08:48;11.90;;;4.90;;
77016;SDS011;65949;53.132;17.930;2023-01-10T05:11:15;11.10;;;4.60;;
77016;SDS011;65949;53.132;17.930;2023-01-10T05:13:42;12.90;;;5.40;;
77016;SDS011;65949;53.132;17.930;2023-01-10T05:16:09;40.20;;;11.50;;
77016;SDS011;65949;53.132;17.930;2023-01-10T05:18:35;25.40;;;8.30;;
77016;SDS011;65949;53.132;17.930;2023-01-10T05:21:03;27.00;;;8.40;;
77016;SDS011;65949;53.132;17.930;2023-01-10T05:23:31;20.10;;;7.30;;
77016;SDS011;65949;53.132;17.930;2023-01-10T05:26:04;23.60;;;8.10;;
77016;SDS011;65949;53.132;17.930;2023-01-10T05:28:32;18.40;;;6.90;;
77016;SDS011;65949;53.132;17.930;2023-01-10T05:30:59;19.30;;;7.50;;
77016;SDS011;65949;53.132;17.930;2023-01-10T05:33:26;20.60;;;8.00;;
77016;SDS011;65949;53.132;17.930;2023-01-10T05:35:53;17.10;;;7.10;;
77016;SDS011;65949;53.132;17.930;2023-01-10T05:38:20;15.20;;;6.60;;
77016;SDS011;65949;53.132;17.930;2023-01-10T05:40:46;15.90;;;6.30;;
77016;SDS011;65949;53.132;17.930;2023-01-10T05:43:13;15.70;;;5.90;;
77016;SDS011;65949;53.132;17.930;2023-01-10T05:45:40;17.10;;;7.40;;
77016;SDS011;65949;53.132;17.930;2023-01-10T05:48:07;19.00;;;7.70;;
77016;SDS011;65949;53.132;17.930;2023-01-10T05:50:34;21.40;;;8.60;;
77016;SDS011;65949;53.132;17.930;2023-01-10T05:53:01;27.90;;;10.60;;
77016;SDS011;65949;53.132;17.930;2023-01-10T05:55:31;32.80;;;12.10;;
77016;SDS011;65949;53.132;17.930;2023-01-10T05:57:58;24.30;;;9.90;;
77016;SDS011;65949;53.132;17.930;2023-01-10T06:00:26;23.60;;;9.50;;
77016;SDS011;65949;53.132;17.930;2023-01-10T06:02:53;25.30;;;9.90;;
77016;SDS011;65949;53.132;17.930;2023-01-10T06:05:22;23.70;;;9.90;;
77016;SDS011;65949;53.132;17.930;2023-01-10T06:07:49;23.70;;;9.40;;
77016;SDS011;65949;53.132;17.930;2023-01-10T06:10:16;23.70;;;10.90;;
77016;SDS011;65949;53.132;17.930;2023-01-10T06:12:43;24.40;;;9.60;;
77016;SDS011;65949;53.132;17.930;2023-01-10T06:15:09;21.00;;;9.00;;
77016;SDS011;65949;53.132;17.930;2023-01-10T06:17:36;19.80;;;8.90;;
77016;SDS011;65949;53.132;17.930;2023-01-10T06:20:04;31.90;;;11.80;;
77016;SDS011;65949;53.132;17.930;2023-01-10T06:22:31;33.10;;;12.10;;
77016;SDS011;65949;53.132;17.930;2023-01-10T06:24:58;31.70;;;11.90;;
77016;SDS011;65949;53.132;17.930;2023-01-10T06:27:25;26.60;;;11.00;;
77016;SDS011;65949;53.132;17.930;2023-01-10T06:29:51;23.70;;;9.90;;
77016;SDS011;65949;53.132;17.930;2023-01-10T06:32:18;24.40;;;10.50;;
77016;SDS011;65949;53.132;17.930;2023-01-10T06:34:44;20.60;;;9.70;;
77016;SDS011;65949;53.132;17.930;2023-01-10T06:37:11;21.40;;;9.90;;
77016;SDS011;65949;53.132;17.930;2023-01-10T06:39:38;22.30;;;9.60;;
77016;SDS011;65949;53.132;17.930;2023-01-10T06:42:05;25.60;;;10.20;;
77016;SDS011;65949;53.132;17.930;2023-01-10T06:44:31;26.80;;;11.40;;
77016;SDS011;65949;53.132;17.930;2023-01-10T06:46:58;28.00;;;11.90;;
77016;SDS011;65949;53.132;17.930;2023-01-10T06:49:25;29.10;;;12.80;;
77016;SDS011;65949;53.132;17.930;2023-01-10T06:51:51;36.60;;;15.20;;
77016;SDS011;65949;53.132;17.930;2023-01-10T06:54:18;34.90;;;15.80;;
77016;SDS011;65949;53.132;17.930;2023-01-10T06:56:46;28.90;;;12.50;;
77016;SDS011;65949;53.132;17.930;2023-01-10T06:59:14;28.70;;;12.10;;
77016;SDS011;65949;53.132;17.930;2023-01-10T07:01:41;28.70;;;12.40;;
77016;SDS011;65949;53.132;17.930;2023-01-10T07:04:07;26.30;;;10.80;;
77016;SDS011;65949;53.132;17.930;2023-01-10T07:06:37;24.10;;;10.40;;
77016;SDS011;65949;53.132;17.930;2023-01-10T07:09:05;24.90;;;10.20;;
77016;SDS011;65949;53.132;17.930;2023-01-10T07:11:33;27.00;;;11.20;;
77016;SDS011;65949;53.132;17.930;2023-01-10T07:14:00;25.90;;;10.70;;
77016;SDS011;65949;53.132;17.930;2023-01-10T07:16:28;35.60;;;13.60;;
77016;SDS011;65949;53.132;17.930;2023-01-10T07:18:55;35.70;;;13.50;;
77016;SDS011;65949;53.132;17.930;2023-01-10T07:21:21;39.60;;;15.90;;
77016;SDS011;65949;53.132;17.930;2023-01-10T07:23:48;43.00;;;17.10;;
77016;SDS011;65949;53.132;17.930;2023-01-10T07:26:16;36.10;;;15.30;;
77016;SDS011;65949;53.132;17.930;2023-01-10T07:28:46;31.50;;;13.00;;
77016;SDS011;65949;53.132;17.930;2023-01-10T07:31:19;28.30;;;11.60;;
77016;SDS011;65949;53.132;17.930;2023-01-10T07:33:49;28.30;;;11.80;;
77016;SDS011;65949;53.132;17.930;2023-01-10T07:36:16;26.20;;;12.20;;
77016;SDS011;65949;53.132;17.930;2023-01-10T07:38:43;28.30;;;11.90;;
77016;SDS011;65949;53.132;17.930;2023-01-10T07:41:10;27.20;;;12.00;;
77016;SDS011;65949;53.132;17.930;2023-01-10T07:43:36;32.00;;;14.80;;
77016;SDS011;65949;53.132;17.930;2023-01-10T07:46:04;35.80;;;15.60;;
77016;SDS011;65949;53.132;17.930;2023-01-10T07:48:36;73.50;;;29.10;;
77016;SDS011;65949;53.132;17.930;2023-01-10T07:51:04;80.90;;;28.90;;
77016;SDS011;65949;53.132;17.930;2023-01-10T07:53:31;70.50;;;28.20;;
77016;SDS011;65949;53.132;17.930;2023-01-10T07:55:59;42.90;;;20.40;;
77016;SDS011;65949;53.132;17.930;2023-01-10T07:58:27;36.80;;;17.50;;
77016;SDS011;65949;53.132;17.930;2023-01-10T08:00:58;30.20;;;15.10;;
77016;SDS011;65949;53.132;17.930;2023-01-10T08:03:26;29.40;;;15.40;;
77016;SDS011;65949;53.132;17.930;2023-01-10T08:05:57;28.50;;;14.60;;
77016;SDS011;65949;53.132;17.930;2023-01-10T08:08:25;27.30;;;15.30;;
77016;SDS011;65949;53.132;17.930;2023-01-10T08:10:52;26.70;;;13.90;;
77016;SDS011;65949;53.132;17.930;2023-01-10T08:13:19;28.60;;;14.70;;
77016;SDS011;65949;53.132;17.930;2023-01-10T08:15:46;28.00;;;14.10;;
77016;SDS011;65949;53.132;17.930;2023-01-10T08:18:15;29.70;;;15.10;;
77016;SDS011;65949;53.132;17.930;2023-01-10T08:20:42;30.60;;;14.20;;
77016;SDS011;65949;53.132;17.930;2023-01-10T08:23:09;32.20;;;15.50;;
77016;SDS011;65949;53.132;17.930;2023-01-10T08:25:35;36.50;;;16.90;;
77016;SDS011;65949;53.132;17.930;2023-01-10T08:28:02;28.10;;;13.60;;
77016;SDS011;65949;53.132;17.930;2023-01-10T08:30:29;25.50;;;12.10;;
77016;SDS011;65949;53.132;17.930;2023-01-10T08:32:56;25.60;;;13.30;;
77016;SDS011;65949;53.132;17.930;2023-01-10T08:35:22;22.50;;;10.90;;
77016;SDS011;65949;53.132;17.930;2023-01-10T08:37:49;24.20;;;12.50;;
77016;SDS011;65949;53.132;17.930;2023-01-10T08:40:15;28.30;;;13.60;;
77016;SDS011;65949;53.132;17.930;2023-01-10T08:42:42;33.50;;;16.80;;
77016;SDS011;65949;53.132;17.930;2023-01-10T08:45:09;31.20;;;16.00;;
77016;SDS011;65949;53.132;17.930;2023-01-10T08:47:36;28.40;;;14.00;;
77016;SDS011;65949;53.132;17.930;2023-01-10T08:50:03;29.10;;;14.20;;
77016;SDS011;65949;53.132;17.930;2023-01-10T08:52:29;32.40;;;13.70;;
77016;SDS011;65949;53.132;17.930;2023-01-10T08:54:56;33.50;;;17.20;;
77016;SDS011;65949;53.132;17.930;2023-01-10T08:57:23;33.20;;;16.30;;
77016;SDS011;65949;53.132;17.930;2023-01-10T08:59:50;30.80;;;14.90;;
77016;SDS011;65949;53.132;17.930;2023-01-10T09:02:16;29.80;;;14.50;;
77016;SDS011;65949;53.132;17.930;2023-01-10T09:04:43;24.80;;;12.70;;
77016;SDS011;65949;53.132;17.930;2023-01-10T09:07:10;27.30;;;13.10;;
77016;SDS011;65949;53.132;17.930;2023-01-10T09:09:36;27.20;;;13.50;;
77016;SDS011;65949;53.132;17.930;2023-01-10T09:12:03;25.90;;;13.10;;
77016;SDS011;65949;53.132;17.930;2023-01-10T09:14:50;24.20;;;12.00;;
77016;SDS011;65949;53.132;17.930;2023-01-10T09:17:17;25.10;;;12.50;;
77016;SDS011;65949;53.132;17.930;2023-01-10T09:19:43;32.50;;;14.30;;
77016;SDS011;65949;53.132;17.930;2023-01-10T09:22:10;33.50;;;15.80;;
77016;SDS011;65949;53.132;17.930;2023-01-10T09:24:37;32.60;;;15.50;;
77016;SDS011;65949;53.132;17.930;2023-01-10T09:27:04;32.90;;;16.50;;
77016;SDS011;65949;53.132;17.930;2023-01-10T09:29:31;31.00;;;15.80;;
77016;SDS011;65949;53.132;17.930;2023-01-10T09:31:58;33.40;;;15.30;;
77016;SDS011;65949;53.132;17.930;2023-01-10T09:34:24;34.00;;;16.20;;
77016;SDS011;65949;53.132;17.930;2023-01-10T09:36:52;23.90;;;11.70;;
77016;SDS011;65949;53.132;17.930;2023-01-10T09:39:19;91.30;;;46.20;;
77016;SDS011;65949;53.132;17.930;2023-01-10T09:52:36;55.80;;;29.30;;
77016;SDS011;65949;53.132;17.930;2023-01-10T09:57:45;47.30;;;19.00;;
77016;SDS011;65949;53.132;17.930;2023-01-10T10:00:20;61.50;;;40.00;;
77016;SDS011;65949;53.132;17.930;2023-01-10T10:02:50;37.60;;;20.60;;
77016;SDS011;65949;53.132;17.930;2023-01-10T10:05:22;31.10;;;15.20;;
77016;SDS011;65949;53.132;17.930;2023-01-10T10:07:57;41.50;;;24.60;;
77016;SDS011;65949;53.132;17.930;2023-01-10T10:13:03;90.90;;;51.60;;
77016;SDS011;65949;53.132;17.930;2023-01-10T10:15:41;71.00;;;32.50;;
77016;SDS011;65949;53.132;17.930;2023-01-10T10:26:34;117.90;;;43.50;;
77016;SDS011;65949;53.132;17.930;2023-01-10T10:29:23;70.80;;;35.90;;
77016;SDS011;65949;53.132;17.930;2023-01-10T10:32:36;55.20;;;22.00;;
77016;SDS011;65949;53.132;17.930;2023-01-10T10:35:28;63.90;;;27.70;;
77016;SDS011;65949;53.132;17.930;2023-01-10T10:38:00;45.90;;;20.00;;
77016;SDS011;65949;53.132;17.930;2023-01-10T10:40:36;38.60;;;16.60;;
77016;SDS011;65949;53.132;17.930;2023-01-10T10:43:10;47.40;;;22.40;;
77016;SDS011;65949;53.132;17.930;2023-01-10T10:49:03;65.70;;;25.00;;
77016;SDS011;65949;53.132;17.930;2023-01-10T10:51:48;165.20;;;58.20;;
77016;SDS011;65949;53.132;17.930;2023-01-10T10:54:17;42.40;;;20.50;;
77016;SDS011;65949;53.132;17.930;2023-01-10T10:56:44;235.20;;;143.70;;
77016;SDS011;65949;53.132;17.930;2023-01-10T10:59:14;211.40;;;113.30;;
77016;SDS011;65949;53.132;17.930;2023-01-10T11:01:44;256.60;;;156.30;;
77016;SDS011;65949;53.132;17.930;2023-01-10T11:04:14;107.40;;;55.40;;
77016;SDS011;65949;53.132;17.930;2023-01-10T11:06:44;65.60;;;32.00;;
77016;SDS011;65949;53.132;17.930;2023-01-10T11:09:15;39.70;;;16.40;;
77016;SDS011;65949;53.132;17.930;2023-01-10T11:11:58;60.30;;;35.00;;
77016;SDS011;65949;53.132;17.930;2023-01-10T11:14:38;49.90;;;28.80;;
77016;SDS011;65949;53.132;17.930;2023-01-10T11:19:55;35.00;;;17.30;;
77016;SDS011;65949;53.132;17.930;2023-01-10T11:22:38;41.80;;;18.60;;
77016;SDS011;65949;53.132;17.930;2023-01-10T11:25:13;41.90;;;17.80;;
77016;SDS011;65949;53.132;17.930;2023-01-10T11:27:53;49.20;;;21.00;;
77016;SDS011;65949;53.132;17.930;2023-01-10T11:30:29;46.00;;;19.80;;
77016;SDS011;65949;53.132;17.930;2023-01-10T11:33:01;42.50;;;18.50;;
77016;SDS011;65949;53.132;17.930;2023-01-10T11:35:36;44.60;;;20.00;;
77016;SDS011;65949;53.132;17.930;2023-01-10T11:40:39;43.50;;;18.90;;
77016;SDS011;65949;53.132;17.930;2023-01-10T11:43:23;47.70;;;20.30;;
77016;SDS011;65949;53.132;17.930;2023-01-10T11:45:55;49.10;;;22.70;;
77016;SDS011;65949;53.132;17.930;2023-01-10T11:48:41;53.60;;;27.40;;
77016;SDS011;65949;53.132;17.930;2023-01-10T11:51:28;47.90;;;21.20;;
77016;SDS011;65949;53.132;17.930;2023-01-10T11:54:00;49.70;;;20.60;;
77016;SDS011;65949;53.132;17.930;2023-01-10T11:56:30;53.60;;;23.80;;
77016;SDS011;65949;53.132;17.930;2023-01-10T11:59:07;46.50;;;19.30;;
77016;SDS011;65949;53.132;17.930;2023-01-10T12:01:43;111.40;;;44.50;;
77016;SDS011;65949;53.132;17.930;2023-01-10T12:04:14;56.20;;;23.30;;
77016;SDS011;65949;53.132;17.930;2023-01-10T12:06:43;64.30;;;31.00;;
77016;SDS011;65949;53.132;17.930;2023-01-10T12:12:03;52.40;;;22.60;;
77016;SDS011;65949;53.132;17.930;2023-01-10T12:14:32;74.70;;;39.20;;
77016;SDS011;65949;53.132;17.930;2023-01-10T12:16:59;49.00;;;21.00;;
77016;SDS011;65949;53.132;17.930;2023-01-10T12:19:28;61.80;;;24.00;;
77016;SDS011;65949;53.132;17.930;2023-01-10T12:21:59;69.40;;;30.50;;
77016;SDS011;65949;53.132;17.930;2023-01-10T12:24:33;46.80;;;20.60;;
77016;SDS011;65949;53.132;17.930;2023-01-10T12:27:04;38.80;;;14.10;;
77016;SDS011;65949;53.132;17.930;2023-01-10T12:29:34;61.40;;;26.70;;
77016;SDS011;65949;53.132;17.930;2023-01-10T12:32:06;53.50;;;22.40;;
77016;SDS011;65949;53.132;17.930;2023-01-10T12:34:46;57.90;;;28.20;;
77016;SDS011;65949;53.132;17.930;2023-01-10T12:40:24;54.90;;;22.80;;
77016;SDS011;65949;53.132;17.930;2023-01-10T12:43:03;78.70;;;38.20;;
77016;SDS011;65949;53.132;17.930;2023-01-10T12:45:57;88.10;;;41.80;;
77016;SDS011;65949;53.132;17.930;2023-01-10T12:51:17;105.20;;;62.40;;
77016;SDS011;65949;53.132;17.930;2023-01-10T12:54:11;53.00;;;20.40;;
77016;SDS011;65949;53.132;17.930;2023-01-10T12:56:40;41.00;;;16.20;;
77016;SDS011;65949;53.132;17.930;2023-01-10T12:59:28;37.90;;;15.80;;
77016;SDS011;65949;53.132;17.930;2023-01-10T13:02:21;63.40;;;30.90;;
77016;SDS011;65949;53.132;17.930;2023-01-10T13:04:52;40.40;;;17.90;;
77016;SDS011;65949;53.132;17.930;2023-01-10T13:07:28;52.60;;;23.90;;
77016;SDS011;65949;53.132;17.930;2023-01-10T13:10:00;40.40;;;17.80;;
77016;SDS011;65949;53.132;17.930;2023-01-10T13:12:32;31.30;;;12.30;;
77016;SDS011;65949;53.132;17.930;2023-01-10T13:15:23;36.00;;;15.30;;
77016;SDS011;65949;53.132;17.930;2023-01-10T13:20:41;31.50;;;15.60;;
77016;SDS011;65949;53.132;17.930;2023-01-10T13:23:22;46.40;;;22.10;;
77016;SDS011;65949;53.132;17.930;2023-01-10T13:25:56;30.00;;;15.40;;
77016;SDS011;65949;53.132;17.930;2023-01-10T13:28:26;67.40;;;41.80;;
77016;SDS011;65949;53.132;17.930;2023-01-10T13:30:56;26.80;;;12.40;;
77016;SDS011;65949;53.132;17.930;2023-01-10T13:33:30;62.00;;;27.40;;
77016;SDS011;65949;53.132;17.930;2023-01-10T13:36:20;44.20;;;22.30;;
77016;SDS011;65949;53.132;17.930;2023-01-10T14:03:40;31.20;;;15.70;;
77016;SDS011;65949;53.132;17.930;2023-01-10T14:08:55;144.00;;;49.90;;
77016;SDS011;65949;53.132;17.930;2023-01-10T14:11:24;90.20;;;29.60;;
77016;SDS011;65949;53.132;17.930;2023-01-10T14:13:55;56.30;;;20.00;;
77016;SDS011;65949;53.132;17.930;2023-01-10T14:19:01;52.20;;;19.10;;
77016;SDS011;65949;53.132;17.930;2023-01-10T14:21:40;42.90;;;15.50;;
77016;SDS011;65949;53.132;17.930;2023-01-10T14:24:18;52.10;;;22.40;;
77016;SDS011;65949;53.132;17.930;2023-01-10T14:26:48;65.00;;;25.60;;
77016;SDS011;65949;53.132;17.930;2023-01-10T14:29:15;55.90;;;19.10;;
77016;SDS011;65949;53.132;17.930;2023-01-10T14:31:44;63.50;;;24.50;;
77016;SDS011;65949;53.132;17.930;2023-01-10T14:34:24;72.90;;;26.10;;
77016;SDS011;65949;53.132;17.930;2023-01-10T14:36:57;65.00;;;24.40;;
77016;SDS011;65949;53.132;17.930;2023-01-10T14:39:27;79.40;;;29.00;;
77016;SDS011;65949;53.132;17.930;2023-01-10T14:41:57;41.50;;;16.60;;
77016;SDS011;65949;53.132;17.930;2023-01-10T14:47:00;84.50;;;31.90;;
77016;SDS011;65949;53.132;17.930;2023-01-10T14:49:34;47.60;;;20.00;;
77016;SDS011;65949;53.132;17.930;2023-01-10T14:52:12;65.80;;;28.70;;
77016;SDS011;65949;53.132;17.930;2023-01-10T14:54:39;103.00;;;40.90;;
77016;SDS011;65949;53.132;17.930;2023-01-10T15:00:13;127.60;;;49.50;;
77016;SDS011;65949;53.132;17.930;2023-01-10T15:02:42;78.80;;;39.50;;
77016;SDS011;65949;53.132;17.930;2023-01-10T15:07:55;72.00;;;40.30;;
77016;SDS011;65949;53.132;17.930;2023-01-10T15:10:41;71.10;;;34.80;;
77016;SDS011;65949;53.132;17.930;2023-01-10T15:13:12;74.10;;;34.10;;
77016;SDS011;65949;53.132;17.930;2023-01-10T15:15:40;70.90;;;31.80;;
77016;SDS011;65949;53.132;17.930;2023-01-10T15:20:53;48.70;;;26.10;;
77016;SDS011;65949;53.132;17.930;2023-01-10T15:23:20;49.40;;;25.50;;
77016;SDS011;65949;53.132;17.930;2023-01-10T15:25:58;44.90;;;22.50;;
77016;SDS011;65949;53.132;17.930;2023-01-10T15:28:27;69.70;;;37.40;;
77016;SDS011;65949;53.132;17.930;2023-01-10T15:30:57;55.30;;;28.40;;
77016;SDS011;65949;53.132;17.930;2023-01-10T15:33:28;91.20;;;38.60;;
77016;SDS011;65949;53.132;17.930;2023-01-10T15:36:02;67.70;;;32.80;;
77016;SDS011;65949;53.132;17.930;2023-01-10T15:38:37;53.50;;;28.40;;
77016;SDS011;65949;53.132;17.930;2023-01-10T15:41:11;45.10;;;22.60;;
77016;SDS011;65949;53.132;17.930;2023-01-10T15:43:45;45.10;;;22.70;;
77016;SDS011;65949;53.132;17.930;2023-01-10T15:46:17;46.00;;;20.60;;
77016;SDS011;65949;53.132;17.930;2023-01-10T15:48:58;45.50;;;22.90;;
77016;SDS011;65949;53.132;17.930;2023-01-10T15:51:37;45.10;;;21.90;;
77016;SDS011;65949;53.132;17.930;2023-01-10T15:56:48;50.10;;;22.20;;
77016;SDS011;65949;53.132;17.930;2023-01-10T16:02:20;67.90;;;33.70;;
77016;SDS011;65949;53.132;17.930;2023-01-10T16:05:07;115.10;;;70.70;;
77016;SDS011;65949;53.132;17.930;2023-01-10T16:07:44;103.30;;;52.80;;
77016;SDS011;65949;53.132;17.930;2023-01-10T16:10:22;88.90;;;44.50;;
77016;SDS011;65949;53.132;17.930;2023-01-10T16:12:51;88.00;;;49.00;;
77016;SDS011;65949;53.132;17.930;2023-01-10T16:15:38;66.40;;;35.40;;
77016;SDS011;65949;53.132;17.930;2023-01-10T16:18:09;50.10;;;25.10;;
77016;SDS011;65949;53.132;17.930;2023-01-10T16:20:37;46.90;;;21.30;;
77016;SDS011;65949;53.132;17.930;2023-01-10T16:23:10;47.00;;;21.80;;
77016;SDS011;65949;53.132;17.930;2023-01-10T16:25:42;54.40;;;28.60;;
77016;SDS011;65949;53.132;17.930;2023-01-10T16:28:11;62.10;;;24.40;;
77016;SDS011;65949;53.132;17.930;2023-01-10T16:30:40;75.00;;;28.60;;
77016;SDS011;65949;53.132;17.930;2023-01-10T16:33:12;86.60;;;36.70;;
77016;SDS011;65949;53.132;17.930;2023-01-10T16:35:44;71.50;;;29.50;;
77016;SDS011;65949;53.132;17.930;2023-01-10T16:38:12;78.70;;;35.40;;
77016;SDS011;65949;53.132;17.930;2023-01-10T16:40:41;67.70;;;31.60;;
77016;SDS011;65949;53.132;17.930;2023-01-10T16:43:10;51.80;;;24.80;;
77016;SDS011;65949;53.132;17.930;2023-01-10T16:45:52;42.70;;;22.20;;
77016;SDS011;65949;53.132;17.930;2023-01-10T16:48:26;43.20;;;21.80;;